createdAt,value
2018-08-03T00:02:20.090Z,100225.00
2018-08-03T00:04:49.935Z,100221.00
2018-08-03T00:07:19.829Z,100220.00
2018-08-03T00:09:49.842Z,100221.00
2018-08-03T00:12:19.999Z,100220.00
2018-08-03T00:14:49.970Z,100225.00
2018-08-03T00:17:20.030Z,100216.00
2018-08-03T00:19:50.253Z,100216.00
2018-08-03T00:22:20.095Z,100217.00
2018-08-03T00:24:50.006Z,100209.00
2018-08-03T00:27:19.998Z,100213.00
2018-08-03T00:29:49.741Z,100210.00
2018-08-03T00:32:19.602Z,100214.00
2018-08-03T00:34:49.626Z,100212.00
2018-08-03T00:37:19.661Z,100214.00
2018-08-03T00:39:49.706Z,100207.00
2018-08-03T00:42:19.743Z,100207.00
2018-08-03T00:44:49.737Z,100209.00
2018-08-03T00:47:19.453Z,100210.00
2018-08-03T00:49:49.108Z,100205.00
2018-08-03T00:52:18.958Z,100208.00
2018-08-03T00:54:48.949Z,100205.00
2018-08-03T00:57:18.913Z,100203.00
2018-08-03T00:59:48.669Z,100207.00
2018-08-03T01:02:18.554Z,100210.00
2018-08-03T01:04:48.681Z,100204.00
2018-08-03T01:07:18.785Z,100206.00
2018-08-03T01:09:48.825Z,100201.00
2018-08-03T01:12:18.966Z,100196.00
2018-08-03T01:14:48.972Z,100198.00
2018-08-03T01:17:18.958Z,100198.00
2018-08-03T01:19:48.961Z,100198.00
2018-08-03T01:22:18.928Z,100202.00
2018-08-03T01:24:49.009Z,100200.00
2018-08-03T01:27:18.978Z,100197.00
2018-08-03T01:29:49.245Z,100199.00
2018-08-03T01:32:19.241Z,100203.00
2018-08-03T01:34:49.298Z,100202.00
2018-08-03T01:37:20.286Z,100200.00
2018-08-03T01:39:50.312Z,100199.00
2018-08-03T01:42:20.557Z,100200.00
2018-08-03T01:44:50.586Z,100202.00
2018-08-03T01:47:20.487Z,100194.00
2018-08-03T01:49:50.352Z,100202.00
2018-08-03T01:52:20.313Z,100205.00
2018-08-03T01:54:50.101Z,100211.00
2018-08-03T01:57:19.942Z,100213.00
2018-08-03T01:59:50.070Z,100213.00
2018-08-03T02:02:20.092Z,100217.00
2018-08-03T02:04:50.154Z,100224.00
2018-08-03T02:07:19.967Z,100230.00
2018-08-03T02:09:49.823Z,100223.00
2018-08-03T02:12:19.798Z,100227.00
2018-08-03T02:14:49.769Z,100224.00
2018-08-03T02:17:19.778Z,100225.00
2018-08-03T02:19:49.842Z,100227.00
2018-08-03T02:22:19.837Z,100229.00
2018-08-03T02:24:49.848Z,100220.00
2018-08-03T02:27:19.824Z,100223.00
2018-08-03T02:29:49.813Z,100223.00
2018-08-03T02:32:19.783Z,100223.00
2018-08-03T02:34:50.099Z,100227.00
2018-08-03T02:37:20.174Z,100227.00
2018-08-03T02:39:50.241Z,100230.00
2018-08-03T02:42:20.293Z,100229.00
2018-08-03T02:44:50.300Z,100233.00
2018-08-03T02:47:20.290Z,100231.00
2018-08-03T02:49:50.333Z,100231.00
2018-08-03T02:52:20.365Z,100239.00
2018-08-03T02:54:50.535Z,100241.00
2018-08-03T02:57:20.562Z,100238.00
2018-08-03T02:59:50.582Z,100242.00
2018-08-03T03:02:20.593Z,100236.00
2018-08-03T03:04:50.725Z,100228.00
2018-08-03T03:07:20.735Z,100250.00
2018-08-03T03:09:51.505Z,100248.00
2018-08-03T03:12:21.486Z,100248.00
2018-08-03T03:14:51.505Z,100245.00
2018-08-03T03:17:21.502Z,100248.00
2018-08-03T03:19:51.497Z,100246.00
2018-08-03T03:22:21.501Z,100250.00
2018-08-03T03:24:51.508Z,100251.00
2018-08-03T03:27:21.678Z,100247.00
2018-08-03T03:29:51.694Z,100255.00
2018-08-03T03:32:21.713Z,100258.00
2018-08-03T03:34:51.466Z,100262.00
2018-08-03T03:37:21.385Z,100266.00
2018-08-03T03:39:51.430Z,100264.00
2018-08-03T03:42:21.424Z,100264.00
2018-08-03T03:44:51.421Z,100264.00
2018-08-03T03:47:21.201Z,100267.00
2018-08-03T03:49:51.062Z,100266.00
2018-08-03T03:52:21.109Z,100267.00
2018-08-03T03:54:51.099Z,100266.00
2018-08-03T03:57:21.326Z,100266.00
2018-08-03T03:59:51.318Z,100263.00
2018-08-03T04:02:21.392Z,100265.00
2018-08-03T04:04:51.385Z,100260.00
2018-08-03T04:07:21.146Z,100256.00
2018-08-03T04:09:51.030Z,100254.00
2018-08-03T04:12:21.120Z,100251.00
2018-08-03T04:14:51.066Z,100250.00
2018-08-03T04:17:21.142Z,100253.00
2018-08-03T04:19:51.174Z,100256.00
2018-08-03T04:22:21.177Z,100253.00
2018-08-03T04:24:51.224Z,100256.00
2018-08-03T04:27:21.460Z,100255.00
2018-08-03T04:29:51.426Z,100262.00
2018-08-03T04:32:21.437Z,100259.00
2018-08-03T04:34:51.458Z,100260.00
2018-08-03T04:37:21.473Z,100256.00
2018-08-03T04:39:51.489Z,100257.00
2018-08-03T04:42:21.591Z,100259.00
2018-08-03T04:44:51.257Z,100263.00
2018-08-03T04:47:21.445Z,100266.00
2018-08-03T04:49:51.450Z,100259.00
2018-08-03T04:52:21.483Z,100261.00
2018-08-03T04:54:51.512Z,100263.00
2018-08-03T04:57:21.586Z,100262.00
2018-08-03T04:59:51.625Z,100260.00
2018-08-03T05:02:21.661Z,100252.00
2018-08-03T05:04:51.748Z,100250.00
2018-08-03T05:07:21.496Z,100250.00
2018-08-03T05:09:51.550Z,100246.00
2018-08-03T05:12:21.537Z,100253.00
2018-08-03T05:14:51.581Z,100255.00
2018-08-03T05:17:25.878Z,100256.00
2018-08-03T05:19:55.873Z,100266.00
2018-08-03T05:22:26.050Z,100277.00
2018-08-03T05:24:56.225Z,100288.00
2018-08-03T05:27:26.225Z,100291.00
2018-08-03T05:29:56.265Z,100288.00
2018-08-03T05:32:26.326Z,100289.00
2018-08-03T05:34:56.352Z,100285.00
2018-08-03T05:37:26.369Z,100284.00
2018-08-03T05:39:56.224Z,100285.00
2018-08-03T05:42:26.101Z,100284.00
2018-08-03T05:44:55.885Z,100287.00
2018-08-03T05:47:25.897Z,100282.00
2018-08-03T05:49:55.865Z,100286.00
2018-08-03T05:52:25.879Z,100290.00
2018-08-03T05:54:56.422Z,100292.00
2018-08-03T05:57:26.473Z,100293.00
2018-08-03T05:59:56.664Z,100291.00
2018-08-03T06:02:26.673Z,100290.00
2018-08-03T06:04:56.661Z,100293.00
2018-08-03T06:07:26.674Z,100294.00
2018-08-03T06:09:56.658Z,100296.00
2018-08-03T06:12:26.685Z,100282.00
2018-08-03T06:14:56.697Z,100284.00
2018-08-03T06:17:26.676Z,100287.00
2018-08-03T06:19:56.674Z,100285.00
2018-08-03T06:22:26.682Z,100285.00
2018-08-03T06:24:56.717Z,100290.00
2018-08-03T06:27:26.733Z,100293.00
2018-08-03T06:29:56.798Z,100289.00
2018-08-03T06:32:26.785Z,100279.00
2018-08-03T06:34:56.779Z,100279.00
2018-08-03T06:37:26.785Z,100278.00
2018-08-03T06:39:56.854Z,100278.00
2018-08-03T06:42:26.867Z,100276.00
2018-08-03T06:44:56.851Z,100282.00
2018-08-03T06:47:26.857Z,100276.00
2018-08-03T06:49:56.902Z,100278.00
2018-08-03T06:52:26.893Z,100281.00
2018-08-03T06:54:56.888Z,100279.00
2018-08-03T06:57:27.180Z,100270.00
2018-08-03T06:59:57.160Z,100269.00
2018-08-03T07:02:27.162Z,100272.00
2018-08-03T07:04:57.138Z,100270.00
2018-08-03T07:07:27.161Z,100267.00
2018-08-03T07:09:57.137Z,100261.00
2018-08-03T07:12:27.121Z,100259.00
2018-08-03T07:14:57.189Z,100262.00
2018-08-03T07:17:27.268Z,100257.00
2018-08-03T07:19:57.299Z,100256.00
2018-08-03T07:22:27.048Z,100251.00
2018-08-03T07:24:56.957Z,100247.00
2018-08-03T07:27:26.969Z,100243.00
2018-08-03T07:29:56.946Z,100244.00
2018-08-03T07:32:26.975Z,100248.00
2018-08-03T07:34:57.801Z,100252.00
2018-08-03T07:37:28.037Z,100253.00
2018-08-03T07:39:58.068Z,100251.00
2018-08-03T07:42:28.047Z,100254.00
2018-08-03T07:44:58.172Z,100255.00
2018-08-03T07:47:28.108Z,100257.00
2018-08-03T07:49:58.109Z,100259.00
2018-08-03T07:52:28.141Z,100256.00
2018-08-03T07:54:58.171Z,100246.00
2018-08-03T07:57:28.193Z,100255.00
2018-08-03T07:59:58.198Z,100241.00
2018-08-03T08:02:28.217Z,100238.00
2018-08-03T08:04:58.085Z,100238.00
2018-08-03T08:07:27.963Z,100234.00
2018-08-03T08:09:57.952Z,100236.00
2018-08-03T08:12:28.067Z,100231.00
2018-08-03T08:14:58.055Z,100235.00
2018-08-03T08:17:28.041Z,100237.00
2018-08-03T08:19:58.043Z,100237.00
2018-08-03T08:22:28.058Z,100233.00
2018-08-03T08:24:58.535Z,100228.00
2018-08-03T08:27:28.543Z,100228.00
2018-08-03T08:29:58.317Z,100229.00
2018-08-03T08:32:28.237Z,100228.00
2018-08-03T08:34:58.134Z,100224.00
2018-08-03T08:37:28.131Z,100225.00
2018-08-03T08:39:58.110Z,100226.00
2018-08-03T08:42:28.098Z,100227.00
2018-08-03T08:44:58.117Z,100224.00
2018-08-03T08:47:28.114Z,100220.00
2018-08-03T08:49:58.156Z,100216.00
2018-08-03T08:52:36.167Z,100217.00
2018-08-03T08:55:11.044Z,100214.00
2018-08-03T08:57:43.961Z,100214.00
2018-08-03T09:00:16.466Z,100218.00
2018-08-03T09:02:47.973Z,100217.00
2018-08-03T09:05:18.150Z,100213.00
2018-08-03T09:07:48.806Z,100214.00
2018-08-03T09:10:19.005Z,100215.00
2018-08-03T09:12:49.370Z,100217.00
2018-08-03T09:15:19.192Z,100212.00
2018-08-03T09:17:49.230Z,100208.00
2018-08-03T09:20:19.373Z,100199.00
2018-08-03T09:22:49.385Z,100199.00
2018-08-03T09:25:19.185Z,100197.00
2018-08-03T09:27:49.062Z,100189.00
2018-08-03T09:30:19.173Z,100187.00
2018-08-03T09:32:49.363Z,100179.00
2018-08-03T09:35:19.458Z,100183.00
2018-08-03T09:37:49.746Z,100174.00
2018-08-03T09:40:19.853Z,100174.00
2018-08-03T09:42:50.013Z,100168.00
2018-08-03T09:45:19.994Z,100167.00
2018-08-03T09:47:49.982Z,100164.00
2018-08-03T09:50:20.022Z,100165.00
2018-08-03T09:52:50.386Z,100156.00
2018-08-03T09:55:20.532Z,100156.00
2018-08-03T09:57:50.453Z,100152.00
2018-08-03T10:00:24.632Z,100145.00
2018-08-03T10:02:54.640Z,100149.00
2018-08-03T10:05:24.621Z,100142.00
2018-08-03T10:07:54.953Z,100150.00
2018-08-03T10:10:24.965Z,100138.00
2018-08-03T10:12:55.095Z,100141.00
2018-08-03T10:15:24.952Z,100141.00
2018-08-03T10:17:55.213Z,100142.00
2018-08-03T10:20:25.178Z,100139.00
2018-08-03T10:22:55.186Z,100140.00
2018-08-03T10:25:25.174Z,100132.00
2018-08-03T10:27:55.502Z,100134.00
2018-08-03T10:30:25.502Z,100139.00
2018-08-03T10:32:55.506Z,100134.00
2018-08-03T10:35:25.491Z,100127.00
2018-08-03T10:37:55.750Z,100124.00
2018-08-03T10:40:25.741Z,100121.00
2018-08-03T10:42:55.927Z,100124.00
2018-08-03T10:45:25.813Z,100118.00
2018-08-03T10:47:56.101Z,100118.00
2018-08-03T10:50:26.062Z,100117.00
2018-08-03T10:52:56.096Z,100112.00
2018-08-03T10:55:26.072Z,100110.00
2018-08-03T10:57:56.417Z,100108.00
2018-08-03T11:00:31.532Z,100104.00
2018-08-03T11:03:07.205Z,100101.00
2018-08-03T11:05:40.590Z,100096.00
2018-08-03T11:08:12.833Z,100089.00
2018-08-03T11:10:45.911Z,100083.00
2018-08-03T11:13:17.919Z,100088.00
2018-08-03T11:15:48.416Z,100092.00
2018-08-03T11:18:18.767Z,100092.00
2018-08-03T11:20:48.822Z,100090.00
2018-08-03T11:23:19.485Z,100094.00
2018-08-03T11:25:50.385Z,100087.00
2018-08-03T11:28:20.425Z,100088.00
2018-08-03T11:30:50.823Z,100082.00
2018-08-03T11:33:21.078Z,100080.00
2018-08-03T11:35:51.113Z,100071.00
2018-08-03T11:38:21.130Z,100071.00
2018-08-03T11:40:51.165Z,100072.00
2018-08-03T11:43:21.191Z,100068.00
2018-08-03T11:45:51.444Z,100059.00
2018-08-03T11:48:21.579Z,100061.00
2018-08-03T11:50:51.602Z,100064.00
2018-08-03T11:53:21.645Z,100059.00
2018-08-03T11:55:51.617Z,100060.00
2018-08-03T11:58:21.605Z,100053.00
2018-08-03T12:00:51.773Z,100056.00
2018-08-03T12:03:21.801Z,100046.00
2018-08-03T12:05:52.043Z,100046.00
2018-08-03T12:08:22.270Z,100048.00
2018-08-03T12:10:52.793Z,100052.00
2018-08-03T12:13:23.674Z,100050.00
2018-08-03T12:15:54.818Z,100050.00
2018-08-03T12:18:25.984Z,100044.00
2018-08-03T12:20:55.965Z,100041.00
2018-08-03T12:23:25.971Z,100040.00
2018-08-03T12:25:56.383Z,100037.00
2018-08-03T12:28:26.881Z,100025.00
2018-08-03T12:30:56.649Z,100021.00
2018-08-03T12:33:26.538Z,100018.00
2018-08-03T12:35:56.930Z,100018.00
2018-08-03T12:38:26.909Z,100016.00
2018-08-03T12:40:56.958Z,100018.00
2018-08-03T12:43:26.966Z,100014.00
2018-08-03T12:45:57.060Z,100012.00
2018-08-03T12:48:27.170Z,100012.00
2018-08-03T12:50:57.221Z,100009.00
2018-08-03T12:53:27.240Z,100016.00
2018-08-03T12:55:57.414Z,100012.00
2018-08-03T12:58:27.397Z,100013.00
2018-08-03T13:00:57.457Z,100012.00
2018-08-03T13:03:32.131Z,100004.00
2018-08-03T13:06:05.462Z,100008.00
2018-08-03T13:08:39.283Z,100007.00
2018-08-03T13:11:09.591Z,99999.00
2018-08-03T13:13:40.998Z,99996.00
2018-08-03T13:16:12.546Z,99993.00
2018-08-03T13:18:43.988Z,99986.00
2018-08-03T13:21:33.581Z,99977.00
2018-08-03T13:24:09.084Z,99972.00
2018-08-03T13:26:40.376Z,99966.00
2018-08-03T13:29:11.606Z,99933.00
2018-08-03T13:31:43.780Z,99968.00
2018-08-03T13:34:14.915Z,99970.00
2018-08-03T13:36:46.750Z,99965.00
2018-08-03T13:39:17.781Z,99961.00
2018-08-03T13:41:47.773Z,99962.00
2018-08-03T13:44:17.818Z,99958.00
2018-08-03T13:46:48.469Z,99956.00
2018-08-03T13:49:18.473Z,99954.00
2018-08-03T13:51:48.538Z,99951.00
2018-08-03T13:54:18.693Z,99946.00
2018-08-03T13:56:49.002Z,99944.00
2018-08-03T13:59:19.061Z,99946.00
2018-08-03T14:02:07.865Z,99933.00
2018-08-03T14:04:41.097Z,99932.00
2018-08-03T14:07:13.585Z,99937.00
2018-08-03T14:09:44.574Z,99936.00
2018-08-03T14:12:15.712Z,99934.00
2018-08-03T14:14:47.477Z,99933.00
2018-08-03T14:17:18.427Z,99929.00
2018-08-03T14:19:48.309Z,99925.00
2018-08-03T14:22:18.570Z,99922.00
2018-08-03T14:24:48.558Z,99917.00
2018-08-03T14:27:18.557Z,99913.00
2018-08-03T14:29:48.894Z,99907.00
2018-08-03T14:32:18.789Z,99909.00
2018-08-03T14:34:48.669Z,99912.00
2018-08-03T14:37:19.105Z,99905.00
2018-08-03T14:39:49.033Z,99908.00
2018-08-03T14:42:18.995Z,99907.00
2018-08-03T14:44:48.886Z,99901.00
2018-08-03T14:47:18.809Z,99894.00
2018-08-03T14:49:48.868Z,99900.00
2018-08-03T14:52:18.790Z,99898.00
2018-08-03T14:54:48.588Z,99898.00
2018-08-03T14:57:18.482Z,99892.00
2018-08-03T14:59:48.557Z,99892.00
2018-08-03T15:02:18.578Z,99889.00
2018-08-03T15:04:48.629Z,99887.00
2018-08-03T15:07:18.602Z,99881.00
2018-08-03T15:09:48.578Z,99883.00
2018-08-03T15:12:18.675Z,99875.00
2018-08-03T15:14:48.613Z,99880.00
2018-08-03T15:17:18.638Z,99875.00
2018-08-03T15:19:48.700Z,99863.00
2018-08-03T15:22:18.614Z,99872.00
2018-08-03T15:24:48.581Z,99869.00
2018-08-03T15:27:18.833Z,99861.00
2018-08-03T15:29:48.810Z,99868.00
2018-08-03T15:32:18.548Z,99865.00
2018-08-03T15:34:48.621Z,99865.00
2018-08-03T15:37:19.055Z,99863.00
2018-08-03T15:39:49.055Z,99860.00
2018-08-03T15:42:19.033Z,99865.00
2018-08-03T15:44:49.441Z,99863.00
2018-08-03T15:47:19.395Z,99859.00
2018-08-03T15:49:49.213Z,99858.00
2018-08-03T15:52:19.242Z,99858.00
2018-08-03T15:54:49.202Z,99855.00
2018-08-03T15:57:19.271Z,99857.00
2018-08-03T15:59:49.232Z,99852.00
2018-08-03T16:02:19.333Z,99851.00
2018-08-03T16:04:49.286Z,99846.00
2018-08-03T16:07:19.366Z,99842.00
2018-08-03T16:09:49.385Z,99840.00
2018-08-03T16:12:19.391Z,99840.00
2018-08-03T16:14:49.478Z,99835.00
2018-08-03T16:17:19.461Z,99831.00
2018-08-03T16:19:49.575Z,99832.00
2018-08-03T16:22:19.637Z,99827.00
2018-08-03T16:24:49.773Z,99828.00
2018-08-03T16:27:19.954Z,99825.00
2018-08-03T16:29:50.010Z,99820.00
2018-08-03T16:32:20.050Z,99826.00
2018-08-03T16:34:50.029Z,99821.00
2018-08-03T16:37:20.022Z,99823.00
2018-08-03T16:39:50.082Z,99823.00
2018-08-03T16:42:20.155Z,99823.00
2018-08-03T16:44:50.166Z,99823.00
2018-08-03T16:47:20.313Z,99819.00
2018-08-03T16:49:50.321Z,99819.00
2018-08-03T16:52:20.342Z,99818.00
2018-08-03T16:54:50.310Z,99817.00
2018-08-03T16:57:20.550Z,99817.00
2018-08-03T16:59:50.529Z,99811.00
2018-08-03T17:02:20.726Z,99814.00
2018-08-03T17:04:50.745Z,99806.00
2018-08-03T17:07:20.969Z,99805.00
2018-08-03T17:09:50.949Z,99803.00
2018-08-03T17:12:20.950Z,99802.00
2018-08-03T17:14:50.910Z,99802.00
2018-08-03T17:17:21.138Z,99804.00
2018-08-03T17:19:51.113Z,99807.00
2018-08-03T17:22:21.105Z,99804.00
2018-08-03T17:24:51.126Z,99804.00
2018-08-03T17:27:21.098Z,99805.00
2018-08-03T17:29:51.111Z,99811.00
2018-08-03T17:32:21.101Z,99817.00
2018-08-03T17:34:51.054Z,99813.00
2018-08-03T17:37:21.062Z,99813.00
2018-08-03T17:39:51.062Z,99811.00
2018-08-03T17:42:21.061Z,99813.00
2018-08-03T17:44:51.081Z,99811.00
2018-08-03T17:47:21.093Z,99816.00
2018-08-03T17:49:51.091Z,99814.00
2018-08-03T17:52:21.079Z,99813.00
2018-08-03T17:54:51.495Z,99816.00
2018-08-03T17:57:21.543Z,99813.00
2018-08-03T17:59:51.562Z,99818.00
2018-08-03T18:02:21.589Z,99815.00
2018-08-03T18:04:51.577Z,99825.00
2018-08-03T18:07:21.615Z,99822.00
2018-08-03T18:09:51.659Z,99820.00
2018-08-03T18:12:21.738Z,99826.00
2018-08-03T18:14:51.941Z,99826.00
2018-08-03T18:17:21.929Z,99827.00
2018-08-03T18:19:52.054Z,99824.00
2018-08-03T18:22:22.075Z,99838.00
2018-08-03T18:24:52.071Z,99836.00
2018-08-03T18:27:22.062Z,99834.00
2018-08-03T18:29:52.031Z,99840.00
2018-08-03T18:32:22.035Z,99842.00
2018-08-03T18:34:52.023Z,99841.00
2018-08-03T18:37:22.086Z,99844.00
2018-08-03T18:39:52.059Z,99844.00
2018-08-03T18:42:22.328Z,99842.00
2018-08-03T18:44:52.286Z,99842.00
2018-08-03T18:47:22.013Z,99844.00
2018-08-03T18:49:51.850Z,99843.00
2018-08-03T18:52:21.857Z,99844.00
2018-08-03T18:54:51.986Z,99846.00
2018-08-03T18:57:21.997Z,99858.00
2018-08-03T18:59:52.046Z,99856.00
2018-08-03T19:02:22.058Z,99864.00
2018-08-03T19:04:52.049Z,99862.00
2018-08-03T19:07:22.038Z,99866.00
2018-08-03T19:09:52.062Z,99865.00
2018-08-03T19:12:22.069Z,99869.00
2018-08-03T19:14:52.038Z,99870.00
2018-08-03T19:17:22.025Z,99880.00
2018-08-03T19:19:52.022Z,99880.00
2018-08-03T19:22:22.033Z,99881.00
2018-08-03T19:24:51.990Z,99887.00
2018-08-03T19:27:22.078Z,99888.00
2018-08-03T19:29:52.034Z,99884.00
2018-08-03T19:32:23.017Z,99887.00
2018-08-03T19:34:52.997Z,99895.00
2018-08-03T19:37:22.731Z,99894.00
2018-08-03T19:39:52.387Z,99899.00
2018-08-03T19:42:22.418Z,99897.00
2018-08-03T19:44:52.169Z,99904.00
2018-08-03T19:47:21.790Z,99906.00
2018-08-03T19:49:51.625Z,99904.00
2018-08-03T19:52:21.688Z,99908.00
2018-08-03T19:54:51.701Z,99906.00
2018-08-03T19:57:21.506Z,99900.00
2018-08-03T19:59:51.345Z,99906.00
2018-08-03T20:02:21.341Z,99903.00
2018-08-03T20:04:51.321Z,99908.00
2018-08-03T20:07:21.297Z,99912.00
2018-08-03T20:09:51.489Z,99910.00
2018-08-03T20:12:21.593Z,99906.00
2018-08-03T20:14:51.578Z,99909.00
2018-08-03T20:17:21.542Z,99909.00
2018-08-03T20:19:51.535Z,99909.00
2018-08-03T20:22:21.693Z,99915.00
2018-08-03T20:24:52.205Z,99915.00
2018-08-03T20:27:22.221Z,99919.00
2018-08-03T20:29:51.936Z,99923.00
2018-08-03T20:32:21.786Z,99921.00
2018-08-03T20:34:51.829Z,99923.00
2018-08-03T20:37:21.810Z,99922.00
2018-08-03T20:39:51.918Z,99921.00
2018-08-03T20:42:22.450Z,99920.00
2018-08-03T20:44:55.944Z,99918.00
2018-08-03T20:47:26.272Z,99921.00
2018-08-03T20:49:56.265Z,99919.00
2018-08-03T20:52:26.237Z,99918.00
2018-08-03T20:54:56.301Z,99919.00
2018-08-03T20:57:26.262Z,99918.00
2018-08-03T20:59:56.252Z,99919.00
2018-08-03T21:02:26.217Z,99922.00
2018-08-03T21:04:56.206Z,99914.00
2018-08-03T21:07:26.165Z,99917.00
2018-08-03T21:09:56.150Z,99919.00
2018-08-03T21:12:26.102Z,99919.00
2018-08-03T21:14:56.090Z,99915.00
2018-08-03T21:17:26.058Z,99913.00
2018-08-03T21:19:56.044Z,99911.00
2018-08-03T21:22:26.014Z,99912.00
2018-08-03T21:25:05.277Z,99915.00
2018-08-03T21:27:39.086Z,99906.00
2018-08-03T21:30:12.263Z,99910.00
2018-08-03T21:32:42.583Z,99914.00
2018-08-03T21:35:14.099Z,99914.00
2018-08-03T21:37:46.289Z,99908.00
2018-08-03T21:40:17.613Z,99908.00
2018-08-03T21:42:48.402Z,99904.00
2018-08-03T21:45:19.170Z,99906.00
2018-08-03T21:47:49.938Z,99905.00
2018-08-03T21:50:19.996Z,99903.00
2018-08-03T21:52:50.027Z,99898.00
2018-08-03T21:55:19.968Z,99897.00
2018-08-03T21:57:50.225Z,99897.00
2018-08-03T22:00:22.501Z,99896.00
2018-08-03T22:02:52.505Z,99894.00
2018-08-03T22:05:22.476Z,99898.00
2018-08-03T22:07:54.533Z,99895.00
2018-08-03T22:10:24.569Z,99892.00
2018-08-03T22:12:54.558Z,99894.00
2018-08-03T22:15:24.368Z,99891.00
2018-08-03T22:17:54.249Z,99896.00
2018-08-03T22:20:24.221Z,99889.00
2018-08-03T22:22:54.214Z,99893.00
2018-08-03T22:25:24.193Z,99894.00
2018-08-03T22:27:54.167Z,99895.00
2018-08-03T22:30:24.166Z,99892.00
2018-08-03T22:32:54.219Z,99888.00
2018-08-03T22:35:24.085Z,99891.00
2018-08-03T22:37:54.109Z,99890.00
2018-08-03T22:40:24.072Z,99887.00
2018-08-03T22:42:54.164Z,99888.00
2018-08-03T22:45:24.044Z,99881.00
2018-08-03T22:47:54.042Z,99884.00
2018-08-03T22:50:24.014Z,99886.00
2018-08-03T22:52:54.007Z,99887.00
2018-08-03T22:55:23.933Z,99883.00
2018-08-03T22:57:53.889Z,99884.00
2018-08-03T23:00:23.764Z,99879.00
2018-08-03T23:02:53.669Z,99881.00
2018-08-03T23:05:23.334Z,99883.00
2018-08-03T23:07:53.151Z,99880.00
2018-08-03T23:10:23.101Z,99875.00
2018-08-03T23:12:53.149Z,99882.00
2018-08-03T23:15:23.097Z,99877.00
2018-08-03T23:17:53.061Z,99880.00
2018-08-03T23:20:23.027Z,99877.00
2018-08-03T23:22:53.077Z,99879.00
2018-08-03T23:25:23.066Z,99880.00
2018-08-03T23:27:53.058Z,99879.00
2018-08-03T23:30:23.015Z,99875.00
2018-08-03T23:32:53.030Z,99878.00
2018-08-03T23:35:22.962Z,99872.00
2018-08-03T23:37:52.929Z,99872.00
2018-08-03T23:40:22.865Z,99869.00
2018-08-03T23:42:52.817Z,99872.00
2018-08-03T23:45:22.792Z,99865.00
2018-08-03T23:47:52.758Z,99866.00
2018-08-03T23:50:22.737Z,99867.00
2018-08-03T23:52:52.702Z,99861.00
2018-08-03T23:55:22.761Z,99860.00
2018-08-03T23:57:52.725Z,99858.00
